sensor_id;sensor_type;location;lat;lon;timestamp;P1;durP1;ratioP1;P2;durP2;ratioP2
10347;SDS011;5220;43.192;23.284;2024-02-26T00:01:46;5.95;;;4.30;;
10347;SDS011;5220;43.192;23.284;2024-02-26T00:04:13;5.38;;;4.55;;
10347;SDS011;5220;43.192;23.284;2024-02-26T00:06:39;7.50;;;4.38;;
10347;SDS011;5220;43.192;23.284;2024-02-26T00:09:06;6.05;;;4.07;;
10347;SDS011;5220;43.192;23.284;2024-02-26T00:11:33;5.22;;;4.00;;
10347;SDS011;5220;43.192;23.284;2024-02-26T00:14:00;5.82;;;4.07;;
10347;SDS011;5220;43.192;23.284;2024-02-26T00:16:26;7.90;;;4.38;;
10347;SDS011;5220;43.192;23.284;2024-02-26T00:18:55;4.30;;;3.90;;
10347;SDS011;5220;43.192;23.284;2024-02-26T00:21:21;10.82;;;4.40;;
10347;SDS011;5220;43.192;23.284;2024-02-26T00:23:48;9.43;;;4.40;;
10347;SDS011;5220;43.192;23.284;2024-02-26T00:26:15;6.03;;;4.60;;
10347;SDS011;5220;43.192;23.284;2024-02-26T00:28:42;6.68;;;4.78;;
10347;SDS011;5220;43.192;23.284;2024-02-26T00:31:09;5.07;;;4.07;;
10347;SDS011;5220;43.192;23.284;2024-02-26T00:33:36;5.63;;;4.55;;
10347;SDS011;5220;43.192;23.284;2024-02-26T00:36:05;9.07;;;4.57;;
10347;SDS011;5220;43.192;23.284;2024-02-26T00:38:32;4.63;;;3.78;;
10347;SDS011;5220;43.192;23.284;2024-02-26T00:40:58;5.80;;;4.75;;
10347;SDS011;5220;43.192;23.284;2024-02-26T00:43:25;6.07;;;4.05;;
10347;SDS011;5220;43.192;23.284;2024-02-26T00:45:52;6.53;;;4.45;;
10347;SDS011;5220;43.192;23.284;2024-02-26T00:48:18;7.93;;;4.47;;
10347;SDS011;5220;43.192;23.284;2024-02-26T00:50:45;5.15;;;4.57;;
10347;SDS011;5220;43.192;23.284;2024-02-26T00:53:13;7.93;;;4.38;;
10347;SDS011;5220;43.192;23.284;2024-02-26T00:55:40;10.93;;;4.80;;
10347;SDS011;5220;43.192;23.284;2024-02-26T00:58:06;7.70;;;4.10;;
10347;SDS011;5220;43.192;23.284;2024-02-26T01:00:33;5.75;;;4.60;;
10347;SDS011;5220;43.192;23.284;2024-02-26T01:03:00;5.80;;;4.35;;
10347;SDS011;5220;43.192;23.284;2024-02-26T01:05:27;5.10;;;4.10;;
10347;SDS011;5220;43.192;23.284;2024-02-26T01:07:54;6.32;;;4.78;;
10347;SDS011;5220;43.192;23.284;2024-02-26T01:10:22;4.80;;;4.03;;
10347;SDS011;5220;43.192;23.284;2024-02-26T01:12:48;7.80;;;4.45;;
10347;SDS011;5220;43.192;23.284;2024-02-26T01:15:15;4.97;;;4.50;;
10347;SDS011;5220;43.192;23.284;2024-02-26T01:17:44;13.27;;;4.65;;
10347;SDS011;5220;43.192;23.284;2024-02-26T01:20:10;5.28;;;4.72;;
10347;SDS011;5220;43.192;23.284;2024-02-26T01:22:37;8.23;;;4.70;;
10347;SDS011;5220;43.192;23.284;2024-02-26T01:25:06;5.05;;;4.32;;
10347;SDS011;5220;43.192;23.284;2024-02-26T01:27:36;6.00;;;4.20;;
10347;SDS011;5220;43.192;23.284;2024-02-26T01:30:02;5.38;;;4.63;;
10347;SDS011;5220;43.192;23.284;2024-02-26T01:32:30;6.28;;;5.13;;
10347;SDS011;5220;43.192;23.284;2024-02-26T01:34:56;7.35;;;4.72;;
10347;SDS011;5220;43.192;23.284;2024-02-26T01:37:23;10.85;;;4.70;;
10347;SDS011;5220;43.192;23.284;2024-02-26T01:39:50;5.53;;;4.65;;
10347;SDS011;5220;43.192;23.284;2024-02-26T01:42:17;8.38;;;4.70;;
10347;SDS011;5220;43.192;23.284;2024-02-26T01:44:45;6.10;;;4.07;;
10347;SDS011;5220;43.192;23.284;2024-02-26T01:47:12;5.20;;;4.53;;
10347;SDS011;5220;43.192;23.284;2024-02-26T01:49:39;7.38;;;5.10;;
10347;SDS011;5220;43.192;23.284;2024-02-26T01:52:07;4.97;;;4.03;;
10347;SDS011;5220;43.192;23.284;2024-02-26T01:54:36;4.75;;;3.92;;
10347;SDS011;5220;43.192;23.284;2024-02-26T01:57:04;5.60;;;4.40;;
10347;SDS011;5220;43.192;23.284;2024-02-26T01:59:32;5.03;;;4.10;;
10347;SDS011;5220;43.192;23.284;2024-02-26T02:02:03;7.32;;;4.53;;
10347;SDS011;5220;43.192;23.284;2024-02-26T02:04:34;7.78;;;4.57;;
10347;SDS011;5220;43.192;23.284;2024-02-26T02:07:01;6.63;;;4.57;;
10347;SDS011;5220;43.192;23.284;2024-02-26T02:09:28;6.13;;;4.18;;
10347;SDS011;5220;43.192;23.284;2024-02-26T02:11:55;4.18;;;3.78;;
10347;SDS011;5220;43.192;23.284;2024-02-26T02:14:22;5.85;;;4.22;;
10347;SDS011;5220;43.192;23.284;2024-02-26T02:16:48;5.13;;;4.10;;
10347;SDS011;5220;43.192;23.284;2024-02-26T02:19:16;4.10;;;3.70;;
10347;SDS011;5220;43.192;23.284;2024-02-26T02:21:44;4.78;;;3.80;;
10347;SDS011;5220;43.192;23.284;2024-02-26T02:24:11;6.13;;;4.63;;
10347;SDS011;5220;43.192;23.284;2024-02-26T02:26:38;4.40;;;4.00;;
10347;SDS011;5220;43.192;23.284;2024-02-26T02:29:05;5.13;;;3.92;;
10347;SDS011;5220;43.192;23.284;2024-02-26T02:31:34;5.00;;;4.03;;
10347;SDS011;5220;43.192;23.284;2024-02-26T02:34:01;7.50;;;4.40;;
10347;SDS011;5220;43.192;23.284;2024-02-26T02:36:28;6.05;;;4.10;;
10347;SDS011;5220;43.192;23.284;2024-02-26T02:38:56;4.30;;;3.80;;
10347;SDS011;5220;43.192;23.284;2024-02-26T02:41:22;5.85;;;3.95;;
10347;SDS011;5220;43.192;23.284;2024-02-26T02:43:51;7.32;;;4.20;;
10347;SDS011;5220;43.192;23.284;2024-02-26T02:46:18;3.92;;;3.63;;
10347;SDS011;5220;43.192;23.284;2024-02-26T02:48:45;4.93;;;3.38;;
10347;SDS011;5220;43.192;23.284;2024-02-26T02:51:12;7.80;;;4.00;;
10347;SDS011;5220;43.192;23.284;2024-02-26T02:53:38;3.97;;;3.40;;
10347;SDS011;5220;43.192;23.284;2024-02-26T02:56:07;5.45;;;3.67;;
10347;SDS011;5220;43.192;23.284;2024-02-26T02:58:33;5.70;;;3.58;;
10347;SDS011;5220;43.192;23.284;2024-02-26T03:01:00;4.55;;;3.42;;
10347;SDS011;5220;43.192;23.284;2024-02-26T03:03:27;6.50;;;4.45;;
10347;SDS011;5220;43.192;23.284;2024-02-26T03:05:54;4.95;;;3.78;;
10347;SDS011;5220;43.192;23.284;2024-02-26T03:08:21;5.57;;;4.30;;
10347;SDS011;5220;43.192;23.284;2024-02-26T03:10:48;5.32;;;3.83;;
10347;SDS011;5220;43.192;23.284;2024-02-26T03:13:17;5.35;;;4.10;;
10347;SDS011;5220;43.192;23.284;2024-02-26T03:15:43;5.18;;;3.95;;
10347;SDS011;5220;43.192;23.284;2024-02-26T03:18:10;7.90;;;3.95;;
10347;SDS011;5220;43.192;23.284;2024-02-26T03:20:37;5.68;;;4.10;;
10347;SDS011;5220;43.192;23.284;2024-02-26T03:23:04;4.47;;;4.05;;
10347;SDS011;5220;43.192;23.284;2024-02-26T03:25:30;4.85;;;3.92;;
10347;SDS011;5220;43.192;23.284;2024-02-26T03:27:57;7.15;;;4.85;;
10347;SDS011;5220;43.192;23.284;2024-02-26T03:30:25;6.50;;;4.50;;
10347;SDS011;5220;43.192;23.284;2024-02-26T03:32:52;4.50;;;4.07;;
10347;SDS011;5220;43.192;23.284;2024-02-26T03:35:19;7.47;;;5.38;;
10347;SDS011;5220;43.192;23.284;2024-02-26T03:37:45;10.88;;;5.40;;
10347;SDS011;5220;43.192;23.284;2024-02-26T03:40:12;7.90;;;6.07;;
10347;SDS011;5220;43.192;23.284;2024-02-26T03:42:40;10.63;;;6.28;;
10347;SDS011;5220;43.192;23.284;2024-02-26T03:45:07;7.57;;;5.95;;
10347;SDS011;5220;43.192;23.284;2024-02-26T03:47:35;7.40;;;5.45;;
10347;SDS011;5220;43.192;23.284;2024-02-26T03:50:03;8.95;;;5.72;;
10347;SDS011;5220;43.192;23.284;2024-02-26T03:52:31;10.98;;;5.32;;
10347;SDS011;5220;43.192;23.284;2024-02-26T03:54:58;7.65;;;5.70;;
10347;SDS011;5220;43.192;23.284;2024-02-26T03:57:25;6.88;;;5.40;;
10347;SDS011;5220;43.192;23.284;2024-02-26T03:59:51;5.38;;;4.70;;
10347;SDS011;5220;43.192;23.284;2024-02-26T04:02:18;8.07;;;5.15;;
10347;SDS011;5220;43.192;23.284;2024-02-26T04:04:46;6.18;;;4.55;;
10347;SDS011;5220;43.192;23.284;2024-02-26T04:07:13;5.07;;;4.50;;
10347;SDS011;5220;43.192;23.284;2024-02-26T04:09:40;8.82;;;6.70;;
10347;SDS011;5220;43.192;23.284;2024-02-26T04:12:08;11.27;;;10.00;;
10347;SDS011;5220;43.192;23.284;2024-02-26T04:14:35;9.20;;;8.13;;
10347;SDS011;5220;43.192;23.284;2024-02-26T04:17:02;10.35;;;8.52;;
10347;SDS011;5220;43.192;23.284;2024-02-26T04:19:29;8.73;;;7.93;;
10347;SDS011;5220;43.192;23.284;2024-02-26T04:21:57;8.02;;;5.72;;
10347;SDS011;5220;43.192;23.284;2024-02-26T04:24:24;6.50;;;5.90;;
10347;SDS011;5220;43.192;23.284;2024-02-26T04:26:50;6.95;;;6.13;;
10347;SDS011;5220;43.192;23.284;2024-02-26T04:29:17;9.75;;;6.55;;
10347;SDS011;5220;43.192;23.284;2024-02-26T04:31:44;7.18;;;5.32;;
10347;SDS011;5220;43.192;23.284;2024-02-26T04:34:11;9.70;;;5.03;;
10347;SDS011;5220;43.192;23.284;2024-02-26T04:36:38;6.18;;;4.88;;
10347;SDS011;5220;43.192;23.284;2024-02-26T04:39:06;6.22;;;4.95;;
10347;SDS011;5220;43.192;23.284;2024-02-26T04:41:33;6.15;;;4.65;;
10347;SDS011;5220;43.192;23.284;2024-02-26T04:43:59;6.93;;;4.30;;
10347;SDS011;5220;43.192;23.284;2024-02-26T04:46:27;5.72;;;4.25;;
10347;SDS011;5220;43.192;23.284;2024-02-26T04:48:54;4.82;;;3.83;;
10347;SDS011;5220;43.192;23.284;2024-02-26T04:51:20;4.60;;;3.90;;
10347;SDS011;5220;43.192;23.284;2024-02-26T04:53:47;5.95;;;4.00;;
10347;SDS011;5220;43.192;23.284;2024-02-26T04:56:15;4.90;;;4.43;;
10347;SDS011;5220;43.192;23.284;2024-02-26T04:58:42;6.47;;;5.05;;
10347;SDS011;5220;43.192;23.284;2024-02-26T05:01:09;5.35;;;4.75;;
10347;SDS011;5220;43.192;23.284;2024-02-26T05:03:36;11.35;;;5.55;;
10347;SDS011;5220;43.192;23.284;2024-02-26T05:06:03;6.32;;;4.93;;
10347;SDS011;5220;43.192;23.284;2024-02-26T05:08:30;6.90;;;5.10;;
10347;SDS011;5220;43.192;23.284;2024-02-26T05:10:58;7.15;;;5.70;;
10347;SDS011;5220;43.192;23.284;2024-02-26T05:13:29;6.85;;;4.68;;
10347;SDS011;5220;43.192;23.284;2024-02-26T05:15:55;6.00;;;5.13;;
10347;SDS011;5220;43.192;23.284;2024-02-26T05:18:22;7.50;;;5.10;;
10347;SDS011;5220;43.192;23.284;2024-02-26T05:20:49;5.57;;;4.97;;
10347;SDS011;5220;43.192;23.284;2024-02-26T05:23:16;9.05;;;5.57;;
10347;SDS011;5220;43.192;23.284;2024-02-26T05:25:42;8.00;;;5.32;;
10347;SDS011;5220;43.192;23.284;2024-02-26T05:28:12;7.22;;;5.55;;
10347;SDS011;5220;43.192;23.284;2024-02-26T05:30:42;7.93;;;6.03;;
10347;SDS011;5220;43.192;23.284;2024-02-26T05:33:08;7.22;;;5.95;;
10347;SDS011;5220;43.192;23.284;2024-02-26T05:35:35;7.25;;;6.18;;
10347;SDS011;5220;43.192;23.284;2024-02-26T05:38:02;10.82;;;6.22;;
10347;SDS011;5220;43.192;23.284;2024-02-26T05:40:28;8.32;;;6.45;;
10347;SDS011;5220;43.192;23.284;2024-02-26T05:42:55;10.38;;;6.50;;
10347;SDS011;5220;43.192;23.284;2024-02-26T05:45:22;8.45;;;6.25;;
10347;SDS011;5220;43.192;23.284;2024-02-26T05:47:50;13.48;;;7.93;;
10347;SDS011;5220;43.192;23.284;2024-02-26T05:50:17;18.92;;;12.00;;
10347;SDS011;5220;43.192;23.284;2024-02-26T05:52:43;11.95;;;9.60;;
10347;SDS011;5220;43.192;23.284;2024-02-26T05:55:10;9.13;;;7.28;;
10347;SDS011;5220;43.192;23.284;2024-02-26T05:57:38;10.20;;;6.18;;
10347;SDS011;5220;43.192;23.284;2024-02-26T06:00:05;8.68;;;6.85;;
10347;SDS011;5220;43.192;23.284;2024-02-26T06:02:32;8.10;;;5.88;;
10347;SDS011;5220;43.192;23.284;2024-02-26T06:05:00;7.85;;;6.00;;
10347;SDS011;5220;43.192;23.284;2024-02-26T06:07:28;9.15;;;6.80;;
10347;SDS011;5220;43.192;23.284;2024-02-26T06:09:54;7.00;;;5.28;;
10347;SDS011;5220;43.192;23.284;2024-02-26T06:12:21;7.13;;;5.80;;
10347;SDS011;5220;43.192;23.284;2024-02-26T06:14:48;7.97;;;6.55;;
10347;SDS011;5220;43.192;23.284;2024-02-26T06:17:15;9.23;;;6.78;;
10347;SDS011;5220;43.192;23.284;2024-02-26T06:19:41;10.35;;;6.50;;
10347;SDS011;5220;43.192;23.284;2024-02-26T06:22:09;8.05;;;6.03;;
10347;SDS011;5220;43.192;23.284;2024-02-26T06:24:36;17.73;;;10.07;;
10347;SDS011;5220;43.192;23.284;2024-02-26T06:27:03;10.73;;;7.70;;
10347;SDS011;5220;43.192;23.284;2024-02-26T06:29:29;9.25;;;7.55;;
10347;SDS011;5220;43.192;23.284;2024-02-26T06:31:56;11.30;;;7.10;;
10347;SDS011;5220;43.192;23.284;2024-02-26T06:34:23;11.80;;;7.00;;
10347;SDS011;5220;43.192;23.284;2024-02-26T06:36:49;22.60;;;13.10;;
10347;SDS011;5220;43.192;23.284;2024-02-26T06:39:18;27.33;;;13.75;;
10347;SDS011;5220;43.192;23.284;2024-02-26T06:41:44;15.82;;;9.95;;
10347;SDS011;5220;43.192;23.284;2024-02-26T06:44:11;12.38;;;9.90;;
10347;SDS011;5220;43.192;23.284;2024-02-26T06:46:39;14.10;;;9.20;;
10347;SDS011;5220;43.192;23.284;2024-02-26T06:49:05;11.88;;;8.88;;
10347;SDS011;5220;43.192;23.284;2024-02-26T06:51:32;17.08;;;10.75;;
10347;SDS011;5220;43.192;23.284;2024-02-26T06:53:59;17.88;;;10.25;;
10347;SDS011;5220;43.192;23.284;2024-02-26T06:56:27;16.77;;;12.20;;
10347;SDS011;5220;43.192;23.284;2024-02-26T06:58:53;22.70;;;16.23;;
10347;SDS011;5220;43.192;23.284;2024-02-26T07:01:20;21.05;;;14.70;;
10347;SDS011;5220;43.192;23.284;2024-02-26T07:03:47;40.10;;;27.92;;
10347;SDS011;5220;43.192;23.284;2024-02-26T07:06:13;39.88;;;25.70;;
10347;SDS011;5220;43.192;23.284;2024-02-26T07:08:40;30.45;;;22.95;;
10347;SDS011;5220;43.192;23.284;2024-02-26T07:11:07;35.90;;;25.45;;
10347;SDS011;5220;43.192;23.284;2024-02-26T07:13:35;33.63;;;26.00;;
10347;SDS011;5220;43.192;23.284;2024-02-26T07:16:02;22.00;;;18.13;;
10347;SDS011;5220;43.192;23.284;2024-02-26T07:18:29;19.58;;;14.95;;
10347;SDS011;5220;43.192;23.284;2024-02-26T07:20:55;28.70;;;16.05;;
10347;SDS011;5220;43.192;23.284;2024-02-26T07:23:22;22.70;;;17.38;;
10347;SDS011;5220;43.192;23.284;2024-02-26T07:25:48;21.40;;;15.98;;
10347;SDS011;5220;43.192;23.284;2024-02-26T07:28:17;24.80;;;17.42;;
10347;SDS011;5220;43.192;23.284;2024-02-26T07:30:46;20.85;;;15.52;;
10347;SDS011;5220;43.192;23.284;2024-02-26T07:33:12;19.65;;;16.52;;
10347;SDS011;5220;43.192;23.284;2024-02-26T07:35:39;19.75;;;16.15;;
10347;SDS011;5220;43.192;23.284;2024-02-26T07:38:06;17.10;;;14.43;;
10347;SDS011;5220;43.192;23.284;2024-02-26T07:40:32;17.27;;;14.30;;
10347;SDS011;5220;43.192;23.284;2024-02-26T07:42:59;25.50;;;15.43;;
10347;SDS011;5220;43.192;23.284;2024-02-26T07:45:26;28.35;;;16.42;;
10347;SDS011;5220;43.192;23.284;2024-02-26T07:47:54;22.67;;;17.35;;
10347;SDS011;5220;43.192;23.284;2024-02-26T07:50:21;20.48;;;14.95;;
10347;SDS011;5220;43.192;23.284;2024-02-26T07:52:47;20.73;;;14.77;;
10347;SDS011;5220;43.192;23.284;2024-02-26T07:55:16;19.70;;;15.35;;
10347;SDS011;5220;43.192;23.284;2024-02-26T07:57:44;19.90;;;15.13;;
10347;SDS011;5220;43.192;23.284;2024-02-26T08:00:11;72.07;;;55.15;;
10347;SDS011;5220;43.192;23.284;2024-02-26T08:02:41;37.80;;;30.73;;
10347;SDS011;5220;43.192;23.284;2024-02-26T08:05:09;35.75;;;28.70;;
10347;SDS011;5220;43.192;23.284;2024-02-26T08:07:36;18.17;;;14.40;;
10347;SDS011;5220;43.192;23.284;2024-02-26T08:10:03;24.83;;;16.25;;
10347;SDS011;5220;43.192;23.284;2024-02-26T08:12:30;16.38;;;12.70;;
10347;SDS011;5220;43.192;23.284;2024-02-26T08:14:57;18.02;;;12.40;;
10347;SDS011;5220;43.192;23.284;2024-02-26T08:17:24;13.50;;;12.02;;
10347;SDS011;5220;43.192;23.284;2024-02-26T08:19:52;20.65;;;17.38;;
10347;SDS011;5220;43.192;23.284;2024-02-26T08:22:20;28.05;;;21.10;;
10347;SDS011;5220;43.192;23.284;2024-02-26T08:24:47;23.65;;;18.95;;
10347;SDS011;5220;43.192;23.284;2024-02-26T08:27:13;16.60;;;14.45;;
10347;SDS011;5220;43.192;23.284;2024-02-26T08:29:40;17.58;;;13.20;;
10347;SDS011;5220;43.192;23.284;2024-02-26T08:32:07;16.20;;;14.25;;
10347;SDS011;5220;43.192;23.284;2024-02-26T08:34:33;16.23;;;13.98;;
10347;SDS011;5220;43.192;23.284;2024-02-26T08:37:00;16.88;;;13.63;;
10347;SDS011;5220;43.192;23.284;2024-02-26T08:39:28;16.10;;;13.10;;
10347;SDS011;5220;43.192;23.284;2024-02-26T08:41:54;13.15;;;11.65;;
10347;SDS011;5220;43.192;23.284;2024-02-26T08:44:21;17.23;;;12.88;;
10347;SDS011;5220;43.192;23.284;2024-02-26T08:46:48;15.20;;;13.38;;
10347;SDS011;5220;43.192;23.284;2024-02-26T08:49:15;17.00;;;14.23;;
10347;SDS011;5220;43.192;23.284;2024-02-26T08:51:42;18.02;;;14.30;;
10347;SDS011;5220;43.192;23.284;2024-02-26T08:54:09;19.20;;;14.95;;
10347;SDS011;5220;43.192;23.284;2024-02-26T08:56:37;17.63;;;14.23;;
10347;SDS011;5220;43.192;23.284;2024-02-26T08:59:04;15.27;;;13.07;;
10347;SDS011;5220;43.192;23.284;2024-02-26T09:01:31;22.48;;;18.38;;
10347;SDS011;5220;43.192;23.284;2024-02-26T09:03:58;20.15;;;16.65;;
10347;SDS011;5220;43.192;23.284;2024-02-26T09:06:24;21.05;;;16.33;;
10347;SDS011;5220;43.192;23.284;2024-02-26T09:08:51;32.67;;;24.80;;
10347;SDS011;5220;43.192;23.284;2024-02-26T09:11:18;38.50;;;30.20;;
10347;SDS011;5220;43.192;23.284;2024-02-26T09:13:46;19.77;;;16.50;;
10347;SDS011;5220;43.192;23.284;2024-02-26T09:16:13;19.50;;;16.10;;
10347;SDS011;5220;43.192;23.284;2024-02-26T09:18:39;39.97;;;29.30;;
10347;SDS011;5220;43.192;23.284;2024-02-26T09:21:06;19.45;;;16.42;;
10347;SDS011;5220;43.192;23.284;2024-02-26T09:23:33;18.33;;;15.70;;
10347;SDS011;5220;43.192;23.284;2024-02-26T09:26:00;18.48;;;14.75;;
10347;SDS011;5220;43.192;23.284;2024-02-26T09:28:27;19.50;;;15.52;;
10347;SDS011;5220;43.192;23.284;2024-02-26T09:30:58;20.92;;;15.82;;
10347;SDS011;5220;43.192;23.284;2024-02-26T09:33:24;18.70;;;15.45;;
10347;SDS011;5220;43.192;23.284;2024-02-26T09:35:51;21.58;;;17.77;;
10347;SDS011;5220;43.192;23.284;2024-02-26T09:38:18;18.42;;;15.27;;
10347;SDS011;5220;43.192;23.284;2024-02-26T09:40:44;19.67;;;17.15;;
10347;SDS011;5220;43.192;23.284;2024-02-26T09:43:13;21.00;;;17.10;;
10347;SDS011;5220;43.192;23.284;2024-02-26T09:45:41;16.27;;;14.57;;
10347;SDS011;5220;43.192;23.284;2024-02-26T09:48:10;17.05;;;14.75;;
10347;SDS011;5220;43.192;23.284;2024-02-26T09:50:39;19.65;;;15.20;;
10347;SDS011;5220;43.192;23.284;2024-02-26T09:53:08;17.05;;;13.63;;
10347;SDS011;5220;43.192;23.284;2024-02-26T09:55:36;17.23;;;14.50;;
10347;SDS011;5220;43.192;23.284;2024-02-26T09:58:03;19.95;;;14.45;;
10347;SDS011;5220;43.192;23.284;2024-02-26T10:00:32;16.05;;;14.07;;
10347;SDS011;5220;43.192;23.284;2024-02-26T10:03:04;16.33;;;14.48;;
10347;SDS011;5220;43.192;23.284;2024-02-26T10:05:34;16.48;;;14.50;;
10347;SDS011;5220;43.192;23.284;2024-02-26T10:08:03;19.25;;;14.70;;
10347;SDS011;5220;43.192;23.284;2024-02-26T10:10:30;17.90;;;14.75;;
10347;SDS011;5220;43.192;23.284;2024-02-26T10:12:59;16.05;;;13.77;;
10347;SDS011;5220;43.192;23.284;2024-02-26T10:15:26;19.02;;;14.48;;
10347;SDS011;5220;43.192;23.284;2024-02-26T10:17:52;17.40;;;14.25;;
10347;SDS011;5220;43.192;23.284;2024-02-26T10:20:19;17.02;;;14.18;;
10347;SDS011;5220;43.192;23.284;2024-02-26T10:22:49;18.52;;;15.95;;
10347;SDS011;5220;43.192;23.284;2024-02-26T10:25:17;15.85;;;13.88;;
10347;SDS011;5220;43.192;23.284;2024-02-26T10:27:44;15.38;;;13.77;;
10347;SDS011;5220;43.192;23.284;2024-02-26T10:30:18;16.80;;;14.43;;
10347;SDS011;5220;43.192;23.284;2024-02-26T10:32:46;17.70;;;14.98;;
10347;SDS011;5220;43.192;23.284;2024-02-26T10:35:14;16.50;;;14.45;;
10347;SDS011;5220;43.192;23.284;2024-02-26T10:37:41;15.73;;;14.05;;
10347;SDS011;5220;43.192;23.284;2024-02-26T10:40:11;17.52;;;14.98;;
10347;SDS011;5220;43.192;23.284;2024-02-26T10:42:38;14.55;;;13.07;;
10347;SDS011;5220;43.192;23.284;2024-02-26T10:45:05;15.70;;;13.93;;
10347;SDS011;5220;43.192;23.284;2024-02-26T10:47:34;15.73;;;13.10;;
10347;SDS011;5220;43.192;23.284;2024-02-26T10:50:01;14.63;;;12.70;;
10347;SDS011;5220;43.192;23.284;2024-02-26T10:52:28;14.68;;;13.13;;
10347;SDS011;5220;43.192;23.284;2024-02-26T10:54:59;15.63;;;12.98;;
10347;SDS011;5220;43.192;23.284;2024-02-26T10:57:31;16.10;;;12.32;;
10347;SDS011;5220;43.192;23.284;2024-02-26T11:00:00;13.80;;;11.80;;
10347;SDS011;5220;43.192;23.284;2024-02-26T11:02:29;15.60;;;12.30;;
10347;SDS011;5220;43.192;23.284;2024-02-26T11:04:58;14.48;;;12.93;;
10347;SDS011;5220;43.192;23.284;2024-02-26T11:07:26;14.98;;;12.40;;
10347;SDS011;5220;43.192;23.284;2024-02-26T11:09:54;16.20;;;12.73;;
10347;SDS011;5220;43.192;23.284;2024-02-26T11:12:21;21.75;;;16.67;;
10347;SDS011;5220;43.192;23.284;2024-02-26T11:14:51;20.85;;;15.52;;
10347;SDS011;5220;43.192;23.284;2024-02-26T11:17:20;15.93;;;14.23;;
10347;SDS011;5220;43.192;23.284;2024-02-26T11:19:48;15.52;;;13.30;;
10347;SDS011;5220;43.192;23.284;2024-02-26T11:22:16;16.35;;;14.20;;
10347;SDS011;5220;43.192;23.284;2024-02-26T11:24:43;17.10;;;13.40;;
10347;SDS011;5220;43.192;23.284;2024-02-26T11:27:10;17.65;;;14.18;;
10347;SDS011;5220;43.192;23.284;2024-02-26T11:29:39;16.67;;;14.20;;
10347;SDS011;5220;43.192;23.284;2024-02-26T11:32:11;16.60;;;14.15;;
10347;SDS011;5220;43.192;23.284;2024-02-26T11:34:38;18.58;;;13.60;;
10347;SDS011;5220;43.192;23.284;2024-02-26T11:37:09;14.35;;;12.82;;
10347;SDS011;5220;43.192;23.284;2024-02-26T11:39:36;16.20;;;13.50;;
10347;SDS011;5220;43.192;23.284;2024-02-26T11:42:05;16.40;;;13.07;;
10347;SDS011;5220;43.192;23.284;2024-02-26T11:44:33;18.33;;;14.20;;
10347;SDS011;5220;43.192;23.284;2024-02-26T11:47:10;14.82;;;13.32;;
10347;SDS011;5220;43.192;23.284;2024-02-26T11:49:38;14.52;;;12.68;;
10347;SDS011;5220;43.192;23.284;2024-02-26T11:52:05;19.50;;;17.13;;
10347;SDS011;5220;43.192;23.284;2024-02-26T11:54:40;24.77;;;20.30;;
10347;SDS011;5220;43.192;23.284;2024-02-26T11:57:23;19.50;;;17.17;;
10347;SDS011;5220;43.192;23.284;2024-02-26T11:59:51;14.63;;;12.98;;
10347;SDS011;5220;43.192;23.284;2024-02-26T12:05:10;28.33;;;23.33;;
10347;SDS011;5220;43.192;23.284;2024-02-26T12:07:45;15.05;;;13.40;;
10347;SDS011;5220;43.192;23.284;2024-02-26T12:10:21;14.35;;;12.85;;
10347;SDS011;5220;43.192;23.284;2024-02-26T12:12:52;16.05;;;12.63;;
10347;SDS011;5220;43.192;23.284;2024-02-26T12:15:22;15.30;;;13.43;;
10347;SDS011;5220;43.192;23.284;2024-02-26T12:17:50;18.45;;;12.73;;
10347;SDS011;5220;43.192;23.284;2024-02-26T12:20:18;17.00;;;13.27;;
10347;SDS011;5220;43.192;23.284;2024-02-26T12:22:46;18.30;;;13.40;;
10347;SDS011;5220;43.192;23.284;2024-02-26T12:25:13;14.05;;;12.55;;
10347;SDS011;5220;43.192;23.284;2024-02-26T12:27:40;17.75;;;12.30;;
10347;SDS011;5220;43.192;23.284;2024-02-26T12:30:07;16.27;;;13.00;;
10347;SDS011;5220;43.192;23.284;2024-02-26T12:32:35;17.73;;;13.88;;
10347;SDS011;5220;43.192;23.284;2024-02-26T12:35:04;17.15;;;13.77;;
10347;SDS011;5220;43.192;23.284;2024-02-26T12:37:32;17.35;;;14.02;;
10347;SDS011;5220;43.192;23.284;2024-02-26T12:40:01;19.10;;;13.55;;
10347;SDS011;5220;43.192;23.284;2024-02-26T12:42:29;16.23;;;12.90;;
10347;SDS011;5220;43.192;23.284;2024-02-26T12:44:57;18.02;;;13.40;;
10347;SDS011;5220;43.192;23.284;2024-02-26T12:47:24;16.20;;;14.02;;
10347;SDS011;5220;43.192;23.284;2024-02-26T12:49:51;17.38;;;13.55;;
10347;SDS011;5220;43.192;23.284;2024-02-26T12:52:19;23.20;;;16.20;;
10347;SDS011;5220;43.192;23.284;2024-02-26T12:54:47;18.60;;;14.48;;
10347;SDS011;5220;43.192;23.284;2024-02-26T12:57:13;17.27;;;14.18;;
10347;SDS011;5220;43.192;23.284;2024-02-26T12:59:41;17.88;;;14.50;;
10347;SDS011;5220;43.192;23.284;2024-02-26T13:02:08;21.08;;;15.55;;
10347;SDS011;5220;43.192;23.284;2024-02-26T13:04:35;19.17;;;15.68;;
10347;SDS011;5220;43.192;23.284;2024-02-26T13:07:03;17.13;;;15.07;;
10347;SDS011;5220;43.192;23.284;2024-02-26T13:09:33;18.73;;;14.38;;
10347;SDS011;5220;43.192;23.284;2024-02-26T13:12:03;17.92;;;13.93;;
10347;SDS011;5220;43.192;23.284;2024-02-26T13:14:30;18.73;;;14.15;;
10347;SDS011;5220;43.192;23.284;2024-02-26T13:16:59;16.52;;;14.00;;
10347;SDS011;5220;43.192;23.284;2024-02-26T13:19:26;18.40;;;15.07;;
10347;SDS011;5220;43.192;23.284;2024-02-26T13:21:53;18.63;;;15.48;;
10347;SDS011;5220;43.192;23.284;2024-02-26T13:24:20;18.00;;;14.30;;
10347;SDS011;5220;43.192;23.284;2024-02-26T13:26:55;20.15;;;15.68;;
10347;SDS011;5220;43.192;23.284;2024-02-26T13:29:21;17.45;;;14.52;;
10347;SDS011;5220;43.192;23.284;2024-02-26T13:31:53;18.77;;;13.70;;
10347;SDS011;5220;43.192;23.284;2024-02-26T13:34:23;19.13;;;15.70;;
10347;SDS011;5220;43.192;23.284;2024-02-26T13:36:51;15.95;;;14.05;;
10347;SDS011;5220;43.192;23.284;2024-02-26T13:39:22;20.13;;;14.60;;
10347;SDS011;5220;43.192;23.284;2024-02-26T13:41:50;22.83;;;17.83;;
10347;SDS011;5220;43.192;23.284;2024-02-26T13:44:18;25.20;;;18.20;;
10347;SDS011;5220;43.192;23.284;2024-02-26T13:46:45;19.60;;;16.65;;
10347;SDS011;5220;43.192;23.284;2024-02-26T13:49:12;19.38;;;15.35;;
10347;SDS011;5220;43.192;23.284;2024-02-26T13:51:39;22.05;;;16.48;;
10347;SDS011;5220;43.192;23.284;2024-02-26T13:54:06;20.02;;;15.43;;
10347;SDS011;5220;43.192;23.284;2024-02-26T13:56:34;19.27;;;15.75;;
10347;SDS011;5220;43.192;23.284;2024-02-26T13:59:01;18.80;;;15.98;;
10347;SDS011;5220;43.192;23.284;2024-02-26T14:01:30;17.08;;;13.70;;
10347;SDS011;5220;43.192;23.284;2024-02-26T14:03:58;24.60;;;18.02;;
10347;SDS011;5220;43.192;23.284;2024-02-26T14:06:26;26.17;;;17.98;;
10347;SDS011;5220;43.192;23.284;2024-02-26T14:08:53;24.63;;;19.73;;
10347;SDS011;5220;43.192;23.284;2024-02-26T14:11:19;26.27;;;17.38;;
10347;SDS011;5220;43.192;23.284;2024-02-26T14:13:47;20.27;;;16.88;;
10347;SDS011;5220;43.192;23.284;2024-02-26T14:16:14;18.10;;;14.98;;
10347;SDS011;5220;43.192;23.284;2024-02-26T14:18:43;16.83;;;15.02;;
10347;SDS011;5220;43.192;23.284;2024-02-26T14:21:10;19.58;;;14.93;;
10347;SDS011;5220;43.192;23.284;2024-02-26T14:23:37;19.80;;;15.10;;
10347;SDS011;5220;43.192;23.284;2024-02-26T14:26:03;18.70;;;14.30;;
10347;SDS011;5220;43.192;23.284;2024-02-26T14:28:30;23.10;;;14.65;;
10347;SDS011;5220;43.192;23.284;2024-02-26T14:30:58;17.65;;;14.65;;
10347;SDS011;5220;43.192;23.284;2024-02-26T14:33:24;18.35;;;14.43;;
10347;SDS011;5220;43.192;23.284;2024-02-26T14:35:52;19.88;;;15.15;;
10347;SDS011;5220;43.192;23.284;2024-02-26T14:38:19;20.38;;;15.05;;